createdAt,value
2022-11-12T00:01:15.662Z,9.35
2022-11-12T00:04:01.285Z,9.70
2022-11-12T00:06:46.958Z,8.63
2022-11-12T00:09:32.248Z,8.88
2022-11-12T00:12:17.709Z,8.25
2022-11-12T00:15:03.206Z,7.78
2022-11-12T00:17:48.625Z,9.75
2022-11-12T00:20:34.785Z,8.20
2022-11-12T00:23:20.405Z,9.43
2022-11-12T00:26:06.187Z,9.68
2022-11-12T00:28:51.648Z,10.38
2022-11-12T00:31:37.750Z,10.20
2022-11-12T00:34:23.264Z,8.27
2022-11-12T00:37:08.940Z,10.38
2022-11-12T00:39:54.604Z,9.27
2022-11-12T00:42:40.359Z,9.80
2022-11-12T00:45:25.872Z,11.20
2022-11-12T00:48:11.182Z,10.25
2022-11-12T00:51:01.456Z,9.82
2022-11-12T00:53:50.912Z,16.42
2022-11-12T00:59:22.592Z,9.52
2022-11-12T01:02:08.079Z,11.57
2022-11-12T01:04:53.716Z,13.95
2022-11-12T01:16:28.325Z,10.10
2022-11-12T01:19:14.185Z,11.80
2022-11-12T01:21:59.676Z,11.52
2022-11-12T01:24:45.204Z,12.10
2022-11-12T01:27:30.697Z,10.90
2022-11-12T01:30:16.558Z,10.02
2022-11-12T01:33:02.199Z,9.93
2022-11-12T01:35:47.920Z,10.73
2022-11-12T01:38:38.485Z,10.10
2022-11-12T01:41:26.874Z,10.82
2022-11-12T01:44:41.215Z,9.97
2022-11-12T01:47:33.119Z,11.68
2022-11-12T01:50:34.109Z,9.07
2022-11-12T01:53:21.872Z,13.13
2022-11-12T01:56:08.012Z,8.77
2022-11-12T01:59:01.674Z,10.30
2022-11-12T02:01:47.197Z,9.32
2022-11-12T02:04:34.622Z,8.60
2022-11-12T02:07:23.515Z,8.18
2022-11-12T02:10:10.221Z,9.10
2022-11-12T02:13:14.704Z,8.20
2022-11-12T02:16:00.135Z,8.30
2022-11-12T02:18:45.553Z,7.72
2022-11-12T02:21:31.487Z,8.25
2022-11-12T02:24:17.001Z,7.40
2022-11-12T02:27:03.413Z,8.50
2022-11-12T02:29:48.976Z,10.55
2022-11-12T02:32:34.849Z,9.52
2022-11-12T02:35:20.220Z,10.18
2022-11-12T02:38:07.149Z,8.77
2022-11-12T02:40:53.016Z,10.70
2022-11-12T02:43:38.914Z,12.73
2022-11-12T02:46:24.806Z,9.35
2022-11-12T02:49:10.345Z,11.68
2022-11-12T02:51:55.712Z,10.43
2022-11-12T02:54:41.071Z,12.00
2022-11-12T02:57:26.861Z,16.20
2022-11-12T03:00:13.530Z,10.88
2022-11-12T03:03:01.876Z,9.18
2022-11-12T03:05:58.969Z,7.70
2022-11-12T03:08:44.757Z,11.70
2022-11-12T03:11:30.273Z,11.50
2022-11-12T03:14:15.849Z,11.32
2022-11-12T03:17:01.159Z,17.30
2022-11-12T03:19:46.744Z,19.00
2022-11-12T03:22:32.229Z,16.55
2022-11-12T03:25:17.904Z,15.52
2022-11-12T03:28:08.868Z,12.15
2022-11-12T03:30:58.739Z,16.30
2022-11-12T03:33:44.423Z,12.85
2022-11-12T03:36:29.889Z,15.32
2022-11-12T03:39:15.292Z,13.82
2022-11-12T03:42:00.865Z,15.98
2022-11-12T03:44:46.851Z,11.10
2022-11-12T03:47:32.196Z,12.10
2022-11-12T03:50:20.244Z,16.02
2022-11-12T03:53:05.890Z,8.45
2022-11-12T03:55:51.312Z,8.15
2022-11-12T03:58:36.716Z,9.00
2022-11-12T04:01:22.431Z,8.77
2022-11-12T04:04:07.946Z,8.48
2022-11-12T04:07:11.922Z,15.18
2022-11-12T04:09:57.441Z,22.00
2022-11-12T04:13:01.391Z,19.05
2022-11-12T04:16:06.806Z,12.30
2022-11-12T04:19:14.489Z,12.63
2022-11-12T04:22:07.259Z,15.10
2022-11-12T04:25:11.254Z,16.15
2022-11-12T04:27:56.701Z,12.18
2022-11-12T04:30:41.979Z,12.23
2022-11-12T04:33:27.465Z,8.52
2022-11-12T04:36:13.171Z,10.80
2022-11-12T04:38:58.539Z,10.00
2022-11-12T04:42:02.621Z,11.57
2022-11-12T04:44:59.955Z,9.05
2022-11-12T04:47:46.412Z,9.82
2022-11-12T04:50:31.788Z,10.05
2022-11-12T04:53:17.334Z,10.95
2022-11-12T04:56:03.127Z,11.85
2022-11-12T04:58:48.757Z,10.60
2022-11-12T05:01:34.269Z,10.00
2022-11-12T05:04:19.740Z,11.77
2022-11-12T05:07:05.370Z,9.60
2022-11-12T05:09:51.267Z,9.90
2022-11-12T05:12:37.268Z,9.68
2022-11-12T05:15:22.896Z,10.13
2022-11-12T05:18:08.371Z,7.43
2022-11-12T05:20:53.991Z,7.70
2022-11-12T05:23:39.759Z,8.18
2022-11-12T05:26:25.283Z,7.18
2022-11-12T05:29:11.055Z,7.93
2022-11-12T05:31:56.515Z,8.18
2022-11-12T05:34:42.416Z,8.20
2022-11-12T05:37:28.207Z,9.50
2022-11-12T05:40:13.897Z,9.00
2022-11-12T05:42:59.351Z,8.07
2022-11-12T05:45:45.090Z,8.65
2022-11-12T05:48:31.571Z,9.30
2022-11-12T05:51:17.146Z,9.52
2022-11-12T05:54:02.993Z,8.38
2022-11-12T05:56:48.608Z,16.88
2022-11-12T05:59:34.250Z,72.55
2022-11-12T06:02:19.899Z,85.50
2022-11-12T06:05:05.594Z,82.63
2022-11-12T06:07:50.911Z,46.47
2022-11-12T06:10:36.612Z,19.80
2022-11-12T06:13:23.905Z,14.50
2022-11-12T06:16:09.930Z,14.63
2022-11-12T06:18:55.767Z,13.65
2022-11-12T06:21:41.075Z,12.40
2022-11-12T06:24:30.660Z,9.18
2022-11-12T06:27:19.265Z,11.55
2022-11-12T06:30:09.124Z,11.93
2022-11-12T06:32:54.739Z,12.35
2022-11-12T06:35:43.171Z,12.85
2022-11-12T06:38:33.947Z,16.23
2022-11-12T06:41:19.456Z,22.10
2022-11-12T06:44:05.272Z,18.35
2022-11-12T06:46:50.888Z,15.93
2022-11-12T06:49:36.425Z,17.27
2022-11-12T06:52:21.793Z,17.10
2022-11-12T06:55:08.627Z,17.80
2022-11-12T06:57:54.331Z,18.55
2022-11-12T07:00:39.922Z,15.60
2022-11-12T07:03:25.400Z,13.68
2022-11-12T07:06:14.154Z,14.40
2022-11-12T07:08:59.545Z,33.40
2022-11-12T07:11:44.969Z,24.35
2022-11-12T07:14:30.311Z,28.92
2022-11-12T07:17:16.100Z,28.15
2022-11-12T07:20:03.860Z,28.05
2022-11-12T07:22:49.792Z,24.40
2022-11-12T07:25:35.348Z,29.42
2022-11-12T07:28:20.531Z,19.33
2022-11-12T07:31:08.453Z,14.95
2022-11-12T07:33:53.964Z,14.98
2022-11-12T07:36:39.281Z,18.02
2022-11-12T07:39:24.645Z,17.58
2022-11-12T07:42:10.100Z,20.90
2022-11-12T07:44:55.577Z,18.42
2022-11-12T07:47:41.166Z,15.25
2022-11-12T07:50:26.811Z,15.43
2022-11-12T07:53:12.006Z,15.07
2022-11-12T07:56:00.555Z,18.88
2022-11-12T07:58:46.441Z,19.77
2022-11-12T08:01:40.841Z,21.17
2022-11-12T08:04:26.438Z,23.05
2022-11-12T08:07:11.802Z,19.45
2022-11-12T08:09:58.470Z,18.63
2022-11-12T08:12:43.886Z,14.10
2022-11-12T08:15:29.473Z,16.10
2022-11-12T08:18:14.932Z,17.50
2022-11-12T08:21:05.906Z,13.30
2022-11-12T08:23:51.801Z,19.98
2022-11-12T08:26:37.033Z,13.10
2022-11-12T08:29:25.484Z,18.98
2022-11-12T08:32:11.023Z,16.13
2022-11-12T08:34:56.281Z,16.13
2022-11-12T08:37:41.606Z,13.70
2022-11-12T08:40:32.152Z,15.02
2022-11-12T08:43:17.662Z,13.32
2022-11-12T08:46:04.124Z,13.50
2022-11-12T08:48:49.984Z,13.88
2022-11-12T08:51:35.102Z,14.30
2022-11-12T08:54:21.115Z,10.05
2022-11-12T08:57:06.407Z,10.95
2022-11-12T08:59:52.078Z,9.15
2022-11-12T09:02:37.330Z,11.23
2022-11-12T09:05:23.074Z,8.75
2022-11-12T09:08:11.836Z,9.48
2022-11-12T09:10:58.340Z,6.65
2022-11-12T09:13:44.139Z,6.18
2022-11-12T09:16:29.949Z,7.53
2022-11-12T09:19:15.183Z,6.78
2022-11-12T09:22:00.863Z,6.05
2022-11-12T09:24:46.250Z,6.97
2022-11-12T09:27:31.895Z,6.43
2022-11-12T09:30:17.610Z,8.18
2022-11-12T09:33:02.882Z,6.15
2022-11-12T09:35:48.778Z,6.32
2022-11-12T09:38:34.574Z,6.97
2022-11-12T09:41:29.837Z,6.68
2022-11-12T09:44:24.558Z,7.20
2022-11-12T09:47:20.771Z,6.70
2022-11-12T09:50:28.626Z,6.22
2022-11-12T09:53:30.470Z,5.70
2022-11-12T09:56:19.229Z,8.07
2022-11-12T09:59:09.508Z,6.65
2022-11-12T10:06:19.112Z,6.30
2022-11-12T10:09:19.672Z,6.38
2022-11-12T10:16:56.057Z,5.85
2022-11-12T10:20:01.491Z,5.93
2022-11-12T10:22:49.590Z,7.03
2022-11-12T10:26:40.113Z,5.90
2022-11-12T10:29:31.148Z,9.43
2022-11-12T10:32:17.698Z,6.93
2022-11-12T10:35:04.008Z,9.63
2022-11-12T10:38:07.394Z,7.63
2022-11-12T10:40:52.885Z,7.20
2022-11-12T10:43:38.365Z,6.90
2022-11-12T10:46:30.187Z,9.25
2022-11-12T10:49:28.885Z,7.75
2022-11-12T10:52:24.516Z,9.15
2022-11-12T10:55:31.261Z,9.52
2022-11-12T10:58:21.695Z,8.25
2022-11-12T11:01:16.029Z,7.60
2022-11-12T11:04:01.557Z,8.68
2022-11-12T11:06:46.926Z,10.38
2022-11-12T11:09:51.481Z,12.07
2022-11-12T11:12:37.229Z,9.52
2022-11-12T11:15:25.557Z,9.35
2022-11-12T11:18:14.530Z,9.40
2022-11-12T11:21:18.588Z,7.00
2022-11-12T11:24:04.408Z,8.30
2022-11-12T11:26:56.203Z,7.15
2022-11-12T11:30:08.198Z,7.70
2022-11-12T11:37:22.888Z,7.53
2022-11-12T11:40:26.969Z,8.02
2022-11-12T11:44:04.056Z,8.00
2022-11-12T11:46:55.825Z,7.43
2022-11-12T11:49:53.616Z,7.72
2022-11-12T11:53:12.615Z,8.23
2022-11-12T11:56:01.761Z,7.30
2022-11-12T11:59:10.864Z,55.08
2022-11-12T12:02:11.953Z,42.90
2022-11-12T12:05:31.519Z,29.40
2022-11-12T12:08:55.913Z,18.77
2022-11-12T12:11:53.745Z,17.33
2022-11-12T12:15:13.073Z,28.40
2022-11-12T12:18:04.211Z,26.75
2022-11-12T12:21:05.951Z,12.27
2022-11-12T12:23:53.795Z,136.45
2022-11-12T12:26:48.341Z,131.13
2022-11-12T12:29:40.825Z,46.78
2022-11-12T12:32:55.832Z,84.10
2022-11-12T12:35:54.992Z,17.40
2022-11-12T12:38:53.283Z,28.48
2022-11-12T12:42:00.322Z,18.80
2022-11-12T12:45:14.753Z,37.72
2022-11-12T12:48:01.502Z,12.65
2022-11-12T12:50:48.670Z,9.48
2022-11-12T12:53:36.298Z,8.88
2022-11-12T12:56:24.461Z,8.10
2022-11-12T12:59:41.428Z,8.65
2022-11-12T13:02:26.598Z,9.02
2022-11-12T13:05:41.715Z,9.05
2022-11-12T13:08:27.582Z,10.45
2022-11-12T13:12:00.981Z,9.85
2022-11-12T13:14:52.261Z,8.52
2022-11-12T13:18:34.155Z,8.43
2022-11-12T13:21:21.428Z,8.15
2022-11-12T13:24:12.692Z,9.70
2022-11-12T13:26:59.960Z,11.95
2022-11-12T13:29:47.795Z,9.18
2022-11-12T13:32:51.602Z,12.55
2022-11-12T13:35:39.615Z,24.92
2022-11-12T13:38:26.376Z,19.88
2022-11-12T13:41:19.639Z,21.92
2022-11-12T13:44:09.932Z,11.15
2022-11-12T13:49:44.202Z,10.65
2022-11-12T13:52:30.417Z,10.07
2022-11-12T13:55:21.639Z,8.95
2022-11-12T13:58:48.702Z,10.63
2022-11-12T14:01:34.592Z,11.90
2022-11-12T14:04:26.612Z,10.80
2022-11-12T14:07:54.704Z,10.18
2022-11-12T14:10:46.553Z,15.70
2022-11-12T14:18:26.796Z,10.63
2022-11-12T14:21:22.073Z,11.98
2022-11-12T14:24:12.453Z,11.63
2022-11-12T14:26:57.805Z,10.93
2022-11-12T14:29:43.936Z,12.40
2022-11-12T14:32:36.947Z,11.10
2022-11-12T14:35:25.349Z,13.40
2022-11-12T14:38:19.842Z,10.55
2022-11-12T14:45:19.661Z,14.32
2022-11-12T14:48:09.764Z,15.50
2022-11-12T14:51:09.486Z,16.92
2022-11-12T14:54:02.521Z,14.85
2022-11-12T14:56:49.381Z,14.25
2022-11-12T14:59:36.565Z,12.18
2022-11-12T15:02:47.196Z,14.00
2022-11-12T15:05:37.573Z,11.88
2022-11-12T15:08:38.356Z,12.85
2022-11-12T15:11:31.981Z,15.43
2022-11-12T15:14:26.773Z,15.50
2022-11-12T15:17:33.980Z,40.40
2022-11-12T15:20:20.602Z,22.55
2022-11-12T15:23:06.477Z,37.05
2022-11-12T15:25:59.753Z,18.73
2022-11-12T15:29:03.216Z,30.10
2022-11-12T15:36:04.312Z,16.73
2022-11-12T15:39:19.902Z,27.48
2022-11-12T15:42:28.599Z,21.48
2022-11-12T15:45:23.175Z,18.38
2022-11-12T15:48:11.775Z,13.75
2022-11-12T15:50:57.844Z,13.70
2022-11-12T15:53:43.576Z,12.85
2022-11-12T15:56:30.274Z,13.70
2022-11-12T15:59:18.119Z,13.50
2022-11-12T16:02:03.843Z,14.20
2022-11-12T16:04:49.336Z,14.27
2022-11-12T16:08:00.002Z,17.20
2022-11-12T16:10:47.111Z,13.82
2022-11-12T16:13:36.727Z,13.07
2022-11-12T16:16:27.508Z,22.60
2022-11-12T16:19:14.956Z,37.78
2022-11-12T16:22:01.634Z,34.42
2022-11-12T16:24:47.309Z,22.00
2022-11-12T16:27:33.231Z,19.77
2022-11-12T16:30:22.790Z,17.73
2022-11-12T16:33:11.315Z,17.15
2022-11-12T16:35:56.889Z,15.43
2022-11-12T16:38:43.078Z,16.92
2022-11-12T16:41:28.387Z,17.33
2022-11-12T16:44:14.019Z,16.10
2022-11-12T16:47:20.223Z,18.55
2022-11-12T16:50:06.468Z,16.13
2022-11-12T16:52:53.017Z,13.65
2022-11-12T16:55:38.648Z,16.27
2022-11-12T16:58:24.395Z,18.17
2022-11-12T17:01:23.490Z,22.02
2022-11-12T17:04:09.117Z,19.52
2022-11-12T17:06:54.532Z,20.63
2022-11-12T17:13:59.302Z,21.40
2022-11-12T17:17:44.073Z,29.45
2022-11-12T17:20:29.499Z,24.15
2022-11-12T17:23:36.771Z,27.23
2022-11-12T17:26:22.741Z,23.98
2022-11-12T17:29:08.772Z,23.83
2022-11-12T17:36:26.748Z,25.00
2022-11-12T17:39:13.060Z,31.45
2022-11-12T17:41:58.597Z,25.50
2022-11-12T17:44:46.284Z,20.67
2022-11-12T17:47:34.574Z,20.08
2022-11-12T17:50:22.242Z,24.02
2022-11-12T17:53:07.661Z,24.77
2022-11-12T17:55:57.138Z,24.98
2022-11-12T17:58:42.748Z,24.65
2022-11-12T18:01:30.088Z,21.10
2022-11-12T18:04:15.600Z,26.38
2022-11-12T18:07:01.193Z,21.10
2022-11-12T18:09:47.224Z,25.40
2022-11-12T18:12:32.568Z,24.42
2022-11-12T18:15:18.232Z,34.58
2022-11-12T18:18:04.514Z,29.85
2022-11-12T18:20:50.750Z,31.00
2022-11-12T18:23:38.330Z,23.00
2022-11-12T18:26:23.709Z,20.75
2022-11-12T18:29:09.171Z,22.48
2022-11-12T18:31:54.419Z,18.00
2022-11-12T18:34:44.609Z,22.65
2022-11-12T18:37:30.060Z,21.17
2022-11-12T18:40:16.116Z,20.77
2022-11-12T18:43:01.504Z,19.17
2022-11-12T18:45:54.509Z,22.15
2022-11-12T18:48:40.693Z,28.15
2022-11-12T18:51:27.357Z,25.33
2022-11-12T18:54:12.847Z,21.05
2022-11-12T18:56:58.445Z,19.45
2022-11-12T18:59:43.788Z,21.58
2022-11-12T19:02:29.269Z,21.08
2022-11-12T19:05:15.130Z,21.35
2022-11-12T19:08:23.315Z,17.35
2022-11-12T19:11:11.668Z,22.15
2022-11-12T19:14:02.235Z,18.05
2022-11-12T19:16:47.594Z,18.45
2022-11-12T19:19:33.128Z,18.00
2022-11-12T19:22:18.548Z,17.08
2022-11-12T19:25:04.698Z,19.55
2022-11-12T19:27:50.058Z,17.92
2022-11-12T19:30:46.909Z,19.67
2022-11-12T19:33:33.484Z,20.40
2022-11-12T19:36:22.221Z,19.90
2022-11-12T19:39:08.129Z,25.70
2022-11-12T19:41:53.584Z,26.00
2022-11-12T19:44:39.056Z,22.35
2022-11-12T19:47:24.477Z,30.60
2022-11-12T19:50:14.876Z,25.67
2022-11-12T19:53:00.946Z,22.42
2022-11-12T19:55:46.654Z,22.52
2022-11-12T19:58:46.759Z,19.55
2022-11-12T20:01:32.422Z,30.02
2022-11-12T20:04:22.980Z,30.35
2022-11-12T20:07:09.606Z,23.40
2022-11-12T20:10:00.702Z,19.05
2022-11-12T20:13:11.948Z,20.23
2022-11-12T20:15:57.515Z,18.35
2022-11-12T20:18:45.265Z,19.42
2022-11-12T20:21:32.861Z,19.50
2022-11-12T20:24:18.422Z,21.17
2022-11-12T20:27:05.733Z,19.05
2022-11-12T20:29:51.216Z,19.58
2022-11-12T20:32:36.507Z,20.15
2022-11-12T20:35:23.292Z,21.52
2022-11-12T20:38:08.818Z,17.88
2022-11-12T20:40:59.068Z,19.92
2022-11-12T20:43:47.410Z,20.73
2022-11-12T20:46:33.117Z,18.63
2022-11-12T20:49:18.620Z,23.48
2022-11-12T20:52:04.130Z,21.35
2022-11-12T20:54:49.626Z,19.55
2022-11-12T20:57:35.009Z,21.08
2022-11-12T21:00:24.332Z,26.40
2022-11-12T21:03:10.158Z,31.42
2022-11-12T21:06:01.274Z,22.20
2022-11-12T21:08:47.373Z,22.38
2022-11-12T21:11:32.957Z,41.35
2022-11-12T21:14:18.336Z,19.98
2022-11-12T21:17:03.824Z,26.00
2022-11-12T21:19:49.321Z,24.00
2022-11-12T21:22:34.817Z,25.38
2022-11-12T21:25:20.265Z,34.60
2022-11-12T21:28:06.455Z,34.05
2022-11-12T21:30:52.919Z,18.73
2022-11-12T21:33:40.074Z,27.50
2022-11-12T21:36:28.402Z,25.13
2022-11-12T21:39:14.313Z,28.17
2022-11-12T21:41:59.802Z,25.50
2022-11-12T21:44:47.126Z,18.38
2022-11-12T21:47:32.900Z,19.10
2022-11-12T21:50:18.793Z,19.08
2022-11-12T21:54:08.961Z,18.20
2022-11-12T21:56:55.015Z,20.88
2022-11-12T21:59:40.771Z,21.30
2022-11-12T22:02:26.667Z,29.83
2022-11-12T22:09:31.196Z,26.83
2022-11-12T22:12:17.291Z,24.27
2022-11-12T22:15:03.885Z,21.92
2022-11-12T22:22:16.529Z,13.65
2022-11-12T22:25:02.688Z,16.42
2022-11-12T22:27:48.009Z,16.85
2022-11-12T22:30:33.433Z,17.83
2022-11-12T22:33:20.055Z,17.73
2022-11-12T22:36:09.349Z,18.58
2022-11-12T22:38:56.117Z,17.88
2022-11-12T22:41:41.973Z,18.55
2022-11-12T22:44:27.238Z,17.80
2022-11-12T22:47:12.700Z,18.30
2022-11-12T22:49:58.310Z,17.52
2022-11-12T22:52:49.874Z,18.10
2022-11-12T22:55:35.966Z,17.60
2022-11-12T22:58:22.315Z,15.85
2022-11-12T23:01:40.495Z,15.20
2022-11-12T23:04:26.319Z,15.40
2022-11-12T23:07:11.853Z,15.13
2022-11-12T23:09:57.537Z,15.07
2022-11-12T23:12:43.313Z,17.13
2022-11-12T23:15:29.958Z,13.93
2022-11-12T23:18:15.443Z,15.43
2022-11-12T23:21:07.297Z,12.65
2022-11-12T23:23:53.120Z,13.32
2022-11-12T23:26:38.598Z,19.27
2022-11-12T23:29:24.382Z,19.08
2022-11-12T23:32:09.884Z,17.50
2022-11-12T23:34:55.373Z,17.85
2022-11-12T23:37:40.796Z,16.17
2022-11-12T23:40:30.974Z,14.48
2022-11-12T23:43:16.563Z,12.48
2022-11-12T23:46:02.097Z,14.00
2022-11-12T23:48:48.007Z,13.35
2022-11-12T23:51:33.452Z,15.00
2022-11-12T23:54:19.323Z,15.35
2022-11-12T23:57:04.783Z,15.63
2022-11-12T23:59:50.478Z,12.52
